McCrary, Mississippi
Current Conditions -  °F | °C
As of 1:15 AM on Saturday 20 Dec 2014 (Local Time) from KGTR Reporting Station
Overcast Overcast  
Wind Chill: 36°   Ceiling: 6000
Heat Index: 41°   Visibility: 9mi
Dew Point: 37°   Wind: 7mph
Humidity: 87%   Direction: 10°N
Pressure: 30.18"   Gusts: NA
Location:  33.455°N, 88.5512°W
Report Text: KGTR 200715Z 01006KT 9SM OVC060 05/03 A3018 RMK AO1
Loading
Personal Weather Stations






























Interactive Weather Map New forecast layout! Learn more

10-Day Weather Forecast

Advertisements
Track Severe Weather on mobile